Arcadia — ZCDN9 — position and weather

sailwx.info

Track history (hours):
 
Tides and Currents Weather Stations Pressure Air Temp Water Temp Dewpoint Dewpoint Depression Visibility Wind Speed Wind Dir Waves Ship Positions

Arcadia

Last reported at 2017-Oct-19 03:41 UTC. Time now 2017-Oct-19 16:55 UTC.
Position N 35°53' E 014°31'.

Length 285.1 m; beam 32.2 m; draft 8 m.

Type: Passenger vessel. MMSI: 310473000.

Date/timePositionNaut miles runAvg speedWind from/ knotsBaromVisibWave heightAir tempDewpointWater temp
2017-Oct-19 03:41N 35°53' E 014°31'1 5.2
2017-Oct-19 03:30N 35°54' E 014°32'4 8.5
2017-Oct-19 03:00N 35°57' E 014°36'612.4
2017-Oct-19 02:30N 36°01' E 014°42'713.0
2017-Oct-19 01:59N 36°05' E 014°48'1613.2
2017-Oct-19 00:44N 36°17' E 015°02'1215.0
2017-Oct-18 23:54N 36°24' E 015°15'2314.8
2017-Oct-18 22:22N 36°41' E 015°34'614.5
2017-Oct-18 21:59N 36°46' E 015°38'4814.6
2017-Oct-18 18:43N 37°24' E 016°14'314.6
2017-Oct-18 18:30N 37°26' E 016°16'714.4
2017-Oct-18 17:59N 37°32' E 016°22'5814.2
2017-Oct-18 13:54N 38°18' E 017°06'814.7
2017-Oct-18 13:23N 38°24' E 017°12'1314.5
2017-Oct-18 12:31N 38°35' E 017°22'014.0
2017-Oct-18 12:30N 38°35' E 017°22'714.5
2017-Oct-18 12:00N 38°40' E 017°28'714.8
2017-Oct-18 11:30N 38°46' E 017°33'714.7
2017-Oct-18 11:00N 38°52' E 017°39'714.9
2017-Oct-18 10:30N 38°58' E 017°44'815.1
2017-Oct-18 10:00N 39°05' E 017°50'714.8
2017-Oct-18 09:31N 39°11' E 017°55'714.5
2017-Oct-18 09:00N 39°17' E 018°01'714.9
2017-Oct-18 08:30N 39°22' E 018°08'714.7
2017-Oct-18 08:00N 39°27' E 018°14'714.6
2017-Oct-18 07:30N 39°33' E 018°20'714.5
2017-Oct-18 07:00N 39°39' E 018°25'714.8
2017-Oct-18 06:31N 39°45' E 018°30'814.9
2017-Oct-18 06:00N 39°52' E 018°36'714.8
2017-Oct-18 05:30N 39°59' E 018°38'1714.3
2017-Oct-18 04:20N 40°15' E 018°37'514.4
2017-Oct-18 04:01N 40°20' E 018°38'714.9
2017-Oct-18 03:30N 40°27' E 018°36'815.0
2017-Oct-18 02:59N 40°35' E 018°34'914.9
2017-Oct-18 02:22N 40°44' E 018°32'515.0
2017-Oct-18 02:00N 40°49' E 018°30'814.9
2017-Oct-18 01:30N 40°57' E 018°28'714.7
2017-Oct-18 01:00N 41°04' E 018°26'814.7
2017-Oct-18 00:28N 41°12' E 018°24'914.6
2017-Oct-17 23:50N 41°21' E 018°22'514.5
2017-Oct-17 23:28N 41°26' E 018°21'75 4.9
2017-Oct-17 08:01N 42°40' E 018°04'0 6.1
2017-Oct-17 07:59N 42°40' E 018°03'10518.4
2017-Oct-17 02:16N 42°53' E 015°42'520.4
2017-Oct-17 02:00N 42°55' E 015°35'1020.4
2017-Oct-17 01:30N 42°59' E 015°22'1020.4
2017-Oct-17 01:00N 43°03' E 015°09'1020.2
2017-Oct-17 00:30N 43°09' E 014°58'1020.5
2017-Oct-17 00:00N 43°16' E 014°48'1020.4
2017-Oct-16 23:30N 43°23' E 014°37'1020.5
2017-Oct-16 23:00N 43°30' E 014°27'1020.7
2017-Oct-16 22:30N 43°36' E 014°16'1020.8
2017-Oct-16 22:00N 43°43' E 014°05'1020.8
2017-Oct-16 21:30N 43°50' E 013°54'1020.7
2017-Oct-16 21:00N 43°56' E 013°43'1020.7
2017-Oct-16 20:30N 44°02' E 013°30'1020.4
2017-Oct-16 20:00N 44°07' E 013°18'1019.4
2017-Oct-16 19:30N 44°15' E 013°11'1020.3
2017-Oct-16 19:00N 44°25' E 013°07'1020.1
2017-Oct-16 18:30N 44°35' E 013°02'1020.1
2017-Oct-16 18:00N 44°44' E 012°57'1020.1
2017-Oct-16 17:30N 44°53' E 012°51'1019.8
2017-Oct-16 17:00N 45°02' E 012°46'1019.5
2017-Oct-16 16:30N 45°09' E 012°36'918.3
2017-Oct-16 16:00N 45°17' E 012°30'815.3
2017-Oct-16 15:30N 45°25' E 012°28'4 7.4
2017-Oct-16 15:00N 45°26' E 012°23'3 3.0
2017-Oct-16 14:00N 45°26' E 012°18'0 0.0
2017-Oct-16 13:30N 45°26' E 012°18'0 0.0
2017-Oct-16 13:00N 45°26' E 012°18'0 0.0
2017-Oct-16 12:30N 45°26' E 012°18'0 0.0
2017-Oct-16 12:00N 45°26' E 012°18'0 0.0
2017-Oct-16 11:30N 45°26' E 012°18'0 0.0
2017-Oct-16 11:00N 45°26' E 012°18'0 0.0
2017-Oct-16 10:30N 45°26' E 012°18'0 0.0
2017-Oct-16 10:00N 45°26' E 012°18'0 0.0
2017-Oct-16 09:30N 45°26' E 012°18'0 0.0
2017-Oct-16 09:00N 45°26' E 012°18'0 0.0
2017-Oct-16 08:24N 45°26' E 012°18'0 0.0
2017-Oct-16 08:00N 45°26' E 012°18'0 0.0
2017-Oct-16 07:30N 45°26' E 012°18'0 0.0
2017-Oct-16 07:00N 45°26' E 012°18'0 0.0
2017-Oct-16 06:30N 45°26' E 012°18'0 0.0
2017-Oct-16 06:00N 45°26' E 012°18'0 0.0
2017-Oct-16 05:30N 45°26' E 012°18'0 0.0
2017-Oct-16 05:00N 45°26' E 012°18'0 0.0
2017-Oct-16 04:30N 45°26' E 012°18'0 0.0
2017-Oct-16 04:00N 45°26' E 012°18'0 0.0
2017-Oct-16 03:30N 45°26' E 012°18'0 0.0
2017-Oct-16 03:00N 45°26' E 012°18'0 0.0
2017-Oct-16 02:30N 45°26' E 012°18'0 0.0
2017-Oct-16 01:57N 45°26' E 012°18'0 0.0
2017-Oct-16 01:27N 45°26' E 012°18'0 0.0
2017-Oct-16 01:00N 45°26' E 012°18'0 0.0
2017-Oct-16 00:30N 45°26' E 012°18'0 0.0
2017-Oct-16 00:00N 45°26' E 012°18'0 0.0
2017-Oct-15 23:30N 45°26' E 012°18'0 0.0
2017-Oct-15 22:57N 45°26' E 012°18'0 0.0
2017-Oct-15 22:30N 45°26' E 012°18'0 0.0
2017-Oct-15 22:00N 45°26' E 012°18'0 0.0
2017-Oct-15 21:30N 45°26' E 012°18'0 0.0
2017-Oct-15 21:00N 45°26' E 012°18'0 0.0
2017-Oct-15 20:30N 45°26' E 012°18'0 0.0
2017-Oct-15 20:00N 45°26' E 012°18'0 0.0
2017-Oct-15 19:30N 45°26' E 012°18'0 0.0
2017-Oct-15 19:00N 45°26' E 012°18'0 0.0
2017-Oct-15 18:30N 45°26' E 012°18'0 0.0
2017-Oct-15 18:00N 45°26' E 012°18'0 0.0
2017-Oct-15 17:30N 45°26' E 012°18'0 0.0
2017-Oct-15 17:00N 45°26' E 012°18'0 0.0
2017-Oct-15 16:30N 45°26' E 012°18'0 0.0
2017-Oct-15 16:00N 45°26' E 012°18'0 0.0
2017-Oct-15 15:30N 45°26' E 012°18'0 0.0
2017-Oct-15 15:00N 45°26' E 012°18'0 0.0
2017-Oct-15 14:00N 45°26' E 012°18'0 0.0
2017-Oct-15 13:30N 45°26' E 012°18'0 0.0
2017-Oct-15 13:00N 45°26' E 012°18'0 0.0
2017-Oct-15 12:30N 45°26' E 012°18'0 0.5
2017-Oct-15 12:00N 45°26' E 012°18'2 4.3
2017-Oct-15 11:30N 45°26' E 012°21'3 5.6
2017-Oct-15 11:00N 45°26' E 012°25'4 8.1
2017-Oct-15 10:30N 45°24' E 012°31'1 1.5
2017-Oct-15 09:59N 45°24' E 012°32'0 0.0
2017-Oct-15 09:26N 45°24' E 012°32'0 0.0
2017-Oct-15 08:59N 45°24' E 012°32'0 0.0
2017-Oct-15 08:29N 45°24' E 012°32'0 0.0
2017-Oct-15 07:59N 45°24' E 012°32'0 0.0
2017-Oct-15 07:29N 45°24' E 012°32'0 0.0
2017-Oct-15 06:59N 45°24' E 012°32'0 0.0
2017-Oct-15 06:29N 45°24' E 012°32'0 0.0
2017-Oct-15 05:59N 45°24' E 012°32'0 0.0
2017-Oct-15 05:29N 45°24' E 012°32'0 0.0
2017-Oct-15 04:59N 45°24' E 012°32'0 0.0
2017-Oct-15 04:29N 45°24' E 012°32'2 4.4
2017-Oct-15 04:00N 45°22' E 012°32'4 8.0
2017-Oct-15 03:30N 45°18' E 012°32'713.9
2017-Oct-15 03:00N 45°13' E 012°39'918.6
2017-Oct-15 02:31N 45°07' E 012°49'918.9
2017-Oct-15 02:00N 44°59' E 012°54'918.7
2017-Oct-15 01:30N 44°50' E 012°59'918.8
2017-Oct-15 01:00N 44°41' E 013°04'918.9
2017-Oct-15 00:30N 44°32' E 013°08'918.8
2017-Oct-15 00:00N 44°23' E 013°12'918.7
2017-Oct-14 23:31N 44°16' E 013°19'1019.2
2017-Oct-14 23:00N 44°10' E 013°30'1019.5
2017-Oct-14 22:30N 44°04' E 013°41'1019.3
2017-Oct-14 22:00N 43°59' E 013°52'1019.2
2017-Oct-14 21:30N 43°53' E 014°03'1019.3
2017-Oct-14 21:00N 43°50' E 014°16'1019.5
2017-Oct-14 20:31N 43°46' E 014°28'1019.7
2017-Oct-14 20:01N 43°43' E 014°41'1019.6
2017-Oct-14 19:30N 43°39' E 014°54'1019.8
2017-Oct-14 18:58N 43°36' E 015°08'919.5
2017-Oct-14 18:30N 43°34' E 015°20'192 8.2
2017-Oct-13 19:07N 41°01' E 017°56'217.2
2017-Oct-13 18:58N 40°59' E 017°58'817.3
2017-Oct-13 18:30N 40°52' E 018°04'816.8
2017-Oct-13 18:00N 40°45' E 018°10'917.0
2017-Oct-13 17:30N 40°38' E 018°17'917.1
2017-Oct-13 17:00N 40°32' E 018°24'11215.0
2017-Oct-13 09:33N 38°46' E 017°37'1317.4
2017-Oct-13 08:48N 38°36' E 017°26'917.4
2017-Oct-13 08:17N 38°29' E 017°18'517.2
2017-Oct-13 08:00N 38°26' E 017°14'917.1
2017-Oct-13 07:30N 38°19' E 017°07'3221.2
2017-Oct-13 06:00N 37°54' E 016°42'2214.0 020 / 181024.010.8 21.016.422.3
2017-Oct-13 04:26N 37°36' E 016°26'818.1
2017-Oct-13 04:00N 37°30' E 016°20'918.1
2017-Oct-13 03:30N 37°23' E 016°13'1418.0
2017-Oct-13 02:42N 37°11' E 016°02'8517.3
2017-Oct-12 21:48N 36°08' E 014°52'517.0
2017-Oct-12 21:30N 36°05' E 014°47'917.0
2017-Oct-12 21:00N 35°59' E 014°39'714.6
2017-Oct-12 20:30N 35°55' E 014°32'2 0.1
2017-Oct-12 03:48N 35°53' E 014°31'1 2.8
2017-Oct-12 03:30N 35°54' E 014°31'4 8.7
2017-Oct-12 03:00N 35°56' E 014°36'713.4
2017-Oct-12 02:30N 36°01' E 014°42'713.9
2017-Oct-12 02:01N 36°06' E 014°48'9213.8
2017-Oct-11 19:20N 37°30' E 015°34'514.4
2017-Oct-11 19:00N 37°35' E 015°34'714.3
2017-Oct-11 18:30N 37°42' E 015°32'714.5
2017-Oct-11 18:00N 37°49' E 015°30'714.6
2017-Oct-11 17:30N 37°56' E 015°29'714.1
2017-Oct-11 17:00N 38°02' E 015°33'81 4.7
2017-Oct-10 23:51N 39°20' E 015°01'614.9
2017-Oct-10 23:28N 39°24' E 014°57'2215.2
2017-Oct-10 22:02N 39°43' E 014°42'115.4
2017-Oct-10 21:59N 39°43' E 014°41'815.3
2017-Oct-10 21:28N 39°50' E 014°36'4715.4
2017-Oct-10 18:23N 40°31' E 014°04'513.4
2017-Oct-10 18:00N 40°36' E 014°04'815.1
2017-Oct-10 17:30N 40°42' E 014°10'714.9
2017-Oct-10 17:00N 40°48' E 014°16'3 5.1
2017-Oct-10 16:30N 40°50' E 014°16'0 0.1
2017-Oct-10 15:26N 40°50' E 014°16'0 0.0
2017-Oct-10 14:56N 40°50' E 014°16'0 0.0
2017-Oct-10 13:53N 40°50' E 014°16'0 0.0
2017-Oct-10 13:23N 40°50' E 014°16'0 0.0
2017-Oct-10 12:53N 40°50' E 014°16'0 0.0
2017-Oct-10 11:11N 40°50' E 014°16'0 0.0
2017-Oct-10 10:59N 40°50' E 014°16'0 0.0
2017-Oct-10 08:29N 40°50' E 014°16'  
Track history (hours):
 
Tides and Currents Weather Stations Pressure Air Temp Water Temp Dewpoint Dewpoint Depression Visibility Wind Speed Wind Dir Waves Ship Positions

Arcadia

Last reported at 2017-Oct-19 03:41 UTC. Time now 2017-Oct-19 16:55 UTC.
Position N 35°53' E 014°31'.

Length 285.1 m; beam 32.2 m; draft 8 m.

Type: Passenger vessel. MMSI: 310473000.

Date/timePositionNaut miles runAvg speedWind from/ knotsBaromVisibWave heightAir tempDewpointWater temp
2017-Oct-19 03:41N 35°53' E 014°31'1 5.2
2017-Oct-19 03:30N 35°54' E 014°32'4 8.5
2017-Oct-19 03:00N 35°57' E 014°36'612.4
2017-Oct-19 02:30N 36°01' E 014°42'713.0
2017-Oct-19 01:59N 36°05' E 014°48'1613.2
2017-Oct-19 00:44N 36°17' E 015°02'1215.0
2017-Oct-18 23:54N 36°24' E 015°15'2314.8
2017-Oct-18 22:22N 36°41' E 015°34'614.5
2017-Oct-18 21:59N 36°46' E 015°38'4814.6
2017-Oct-18 18:43N 37°24' E 016°14'314.6
2017-Oct-18 18:30N 37°26' E 016°16'714.4
2017-Oct-18 17:59N 37°32' E 016°22'5814.2
2017-Oct-18 13:54N 38°18' E 017°06'814.7
2017-Oct-18 13:23N 38°24' E 017°12'1314.5
2017-Oct-18 12:31N 38°35' E 017°22'014.0
2017-Oct-18 12:30N 38°35' E 017°22'714.5
2017-Oct-18 12:00N 38°40' E 017°28'714.8
2017-Oct-18 11:30N 38°46' E 017°33'714.7
2017-Oct-18 11:00N 38°52' E 017°39'714.9
2017-Oct-18 10:30N 38°58' E 017°44'815.1
2017-Oct-18 10:00N 39°05' E 017°50'714.8
2017-Oct-18 09:31N 39°11' E 017°55'714.5
2017-Oct-18 09:00N 39°17' E 018°01'714.9
2017-Oct-18 08:30N 39°22' E 018°08'714.7
2017-Oct-18 08:00N 39°27' E 018°14'714.6
2017-Oct-18 07:30N 39°33' E 018°20'714.5
2017-Oct-18 07:00N 39°39' E 018°25'714.8
2017-Oct-18 06:31N 39°45' E 018°30'814.9
2017-Oct-18 06:00N 39°52' E 018°36'714.8
2017-Oct-18 05:30N 39°59' E 018°38'1714.3
2017-Oct-18 04:20N 40°15' E 018°37'514.4
2017-Oct-18 04:01N 40°20' E 018°38'714.9
2017-Oct-18 03:30N 40°27' E 018°36'815.0
2017-Oct-18 02:59N 40°35' E 018°34'914.9
2017-Oct-18 02:22N 40°44' E 018°32'515.0
2017-Oct-18 02:00N 40°49' E 018°30'814.9
2017-Oct-18 01:30N 40°57' E 018°28'714.7
2017-Oct-18 01:00N 41°04' E 018°26'814.7
2017-Oct-18 00:28N 41°12' E 018°24'914.6
2017-Oct-17 23:50N 41°21' E 018°22'514.5
2017-Oct-17 23:28N 41°26' E 018°21'75 4.9
2017-Oct-17 08:01N 42°40' E 018°04'0 6.1
2017-Oct-17 07:59N 42°40' E 018°03'10518.4
2017-Oct-17 02:16N 42°53' E 015°42'520.4
2017-Oct-17 02:00N 42°55' E 015°35'1020.4
2017-Oct-17 01:30N 42°59' E 015°22'1020.4
2017-Oct-17 01:00N 43°03' E 015°09'1020.2
2017-Oct-17 00:30N 43°09' E 014°58'1020.5
2017-Oct-17 00:00N 43°16' E 014°48'1020.4
2017-Oct-16 23:30N 43°23' E 014°37'1020.5
2017-Oct-16 23:00N 43°30' E 014°27'1020.7
2017-Oct-16 22:30N 43°36' E 014°16'1020.8
2017-Oct-16 22:00N 43°43' E 014°05'1020.8
2017-Oct-16 21:30N 43°50' E 013°54'1020.7
2017-Oct-16 21:00N 43°56' E 013°43'1020.7
2017-Oct-16 20:30N 44°02' E 013°30'1020.4
2017-Oct-16 20:00N 44°07' E 013°18'1019.4
2017-Oct-16 19:30N 44°15' E 013°11'1020.3
2017-Oct-16 19:00N 44°25' E 013°07'1020.1
2017-Oct-16 18:30N 44°35' E 013°02'1020.1
2017-Oct-16 18:00N 44°44' E 012°57'1020.1
2017-Oct-16 17:30N 44°53' E 012°51'1019.8
2017-Oct-16 17:00N 45°02' E 012°46'1019.5
2017-Oct-16 16:30N 45°09' E 012°36'918.3
2017-Oct-16 16:00N 45°17' E 012°30'815.3
2017-Oct-16 15:30N 45°25' E 012°28'4 7.4
2017-Oct-16 15:00N 45°26' E 012°23'3 3.0
2017-Oct-16 14:00N 45°26' E 012°18'0 0.0
2017-Oct-16 13:30N 45°26' E 012°18'0 0.0
2017-Oct-16 13:00N 45°26' E 012°18'0 0.0
2017-Oct-16 12:30N 45°26' E 012°18'0 0.0
2017-Oct-16 12:00N 45°26' E 012°18'0 0.0
2017-Oct-16 11:30N 45°26' E 012°18'0 0.0
2017-Oct-16 11:00N 45°26' E 012°18'0 0.0
2017-Oct-16 10:30N 45°26' E 012°18'0 0.0
2017-Oct-16 10:00N 45°26' E 012°18'0 0.0
2017-Oct-16 09:30N 45°26' E 012°18'0 0.0
2017-Oct-16 09:00N 45°26' E 012°18'0 0.0
2017-Oct-16 08:24N 45°26' E 012°18'0 0.0
2017-Oct-16 08:00N 45°26' E 012°18'0 0.0
2017-Oct-16 07:30N 45°26' E 012°18'0 0.0
2017-Oct-16 07:00N 45°26' E 012°18'0 0.0
2017-Oct-16 06:30N 45°26' E 012°18'0 0.0
2017-Oct-16 06:00N 45°26' E 012°18'0 0.0
2017-Oct-16 05:30N 45°26' E 012°18'0 0.0
2017-Oct-16 05:00N 45°26' E 012°18'0 0.0
2017-Oct-16 04:30N 45°26' E 012°18'0 0.0
2017-Oct-16 04:00N 45°26' E 012°18'0 0.0
2017-Oct-16 03:30N 45°26' E 012°18'0 0.0
2017-Oct-16 03:00N 45°26' E 012°18'0 0.0
2017-Oct-16 02:30N 45°26' E 012°18'0 0.0
2017-Oct-16 01:57N 45°26' E 012°18'0 0.0
2017-Oct-16 01:27N 45°26' E 012°18'0 0.0
2017-Oct-16 01:00N 45°26' E 012°18'0 0.0
2017-Oct-16 00:30N 45°26' E 012°18'0 0.0
2017-Oct-16 00:00N 45°26' E 012°18'0 0.0
2017-Oct-15 23:30N 45°26' E 012°18'0 0.0
2017-Oct-15 22:57N 45°26' E 012°18'0 0.0
2017-Oct-15 22:30N 45°26' E 012°18'0 0.0
2017-Oct-15 22:00N 45°26' E 012°18'0 0.0
2017-Oct-15 21:30N 45°26' E 012°18'0 0.0
2017-Oct-15 21:00N 45°26' E 012°18'0 0.0
2017-Oct-15 20:30N 45°26' E 012°18'0 0.0
2017-Oct-15 20:00N 45°26' E 012°18'0 0.0
2017-Oct-15 19:30N 45°26' E 012°18'0 0.0
2017-Oct-15 19:00N 45°26' E 012°18'0 0.0
2017-Oct-15 18:30N 45°26' E 012°18'0 0.0
2017-Oct-15 18:00N 45°26' E 012°18'0 0.0
2017-Oct-15 17:30N 45°26' E 012°18'0 0.0
2017-Oct-15 17:00N 45°26' E 012°18'0 0.0
2017-Oct-15 16:30N 45°26' E 012°18'0 0.0
2017-Oct-15 16:00N 45°26' E 012°18'0 0.0
2017-Oct-15 15:30N 45°26' E 012°18'0 0.0
2017-Oct-15 15:00N 45°26' E 012°18'0 0.0
2017-Oct-15 14:00N 45°26' E 012°18'0 0.0
2017-Oct-15 13:30N 45°26' E 012°18'0 0.0
2017-Oct-15 13:00N 45°26' E 012°18'0 0.0
2017-Oct-15 12:30N 45°26' E 012°18'0 0.5
2017-Oct-15 12:00N 45°26' E 012°18'2 4.3
2017-Oct-15 11:30N 45°26' E 012°21'3 5.6
2017-Oct-15 11:00N 45°26' E 012°25'4 8.1
2017-Oct-15 10:30N 45°24' E 012°31'1 1.5
2017-Oct-15 09:59N 45°24' E 012°32'0 0.0
2017-Oct-15 09:26N 45°24' E 012°32'0 0.0
2017-Oct-15 08:59N 45°24' E 012°32'0 0.0
2017-Oct-15 08:29N 45°24' E 012°32'0 0.0
2017-Oct-15 07:59N 45°24' E 012°32'0 0.0
2017-Oct-15 07:29N 45°24' E 012°32'0 0.0
2017-Oct-15 06:59N 45°24' E 012°32'0 0.0
2017-Oct-15 06:29N 45°24' E 012°32'0 0.0
2017-Oct-15 05:59N 45°24' E 012°32'0 0.0
2017-Oct-15 05:29N 45°24' E 012°32'0 0.0
2017-Oct-15 04:59N 45°24' E 012°32'0 0.0
2017-Oct-15 04:29N 45°24' E 012°32'2 4.4
2017-Oct-15 04:00N 45°22' E 012°32'4 8.0
2017-Oct-15 03:30N 45°18' E 012°32'713.9
2017-Oct-15 03:00N 45°13' E 012°39'918.6
2017-Oct-15 02:31N 45°07' E 012°49'918.9
2017-Oct-15 02:00N 44°59' E 012°54'918.7
2017-Oct-15 01:30N 44°50' E 012°59'918.8
2017-Oct-15 01:00N 44°41' E 013°04'918.9
2017-Oct-15 00:30N 44°32' E 013°08'918.8
2017-Oct-15 00:00N 44°23' E 013°12'918.7
2017-Oct-14 23:31N 44°16' E 013°19'1019.2
2017-Oct-14 23:00N 44°10' E 013°30'1019.5
2017-Oct-14 22:30N 44°04' E 013°41'1019.3
2017-Oct-14 22:00N 43°59' E 013°52'1019.2
2017-Oct-14 21:30N 43°53' E 014°03'1019.3
2017-Oct-14 21:00N 43°50' E 014°16'1019.5
2017-Oct-14 20:31N 43°46' E 014°28'1019.7
2017-Oct-14 20:01N 43°43' E 014°41'1019.6
2017-Oct-14 19:30N 43°39' E 014°54'1019.8
2017-Oct-14 18:58N 43°36' E 015°08'919.5
2017-Oct-14 18:30N 43°34' E 015°20'192 8.2
2017-Oct-13 19:07N 41°01' E 017°56'217.2
2017-Oct-13 18:58N 40°59' E 017°58'817.3
2017-Oct-13 18:30N 40°52' E 018°04'816.8
2017-Oct-13 18:00N 40°45' E 018°10'917.0
2017-Oct-13 17:30N 40°38' E 018°17'917.1
2017-Oct-13 17:00N 40°32' E 018°24'11215.0
2017-Oct-13 09:33N 38°46' E 017°37'1317.4
2017-Oct-13 08:48N 38°36' E 017°26'917.4
2017-Oct-13 08:17N 38°29' E 017°18'517.2
2017-Oct-13 08:00N 38°26' E 017°14'917.1
2017-Oct-13 07:30N 38°19' E 017°07'3221.2
2017-Oct-13 06:00N 37°54' E 016°42'2214.0 020 / 181024.010.8 21.016.422.3
2017-Oct-13 04:26N 37°36' E 016°26'818.1
2017-Oct-13 04:00N 37°30' E 016°20'918.1
2017-Oct-13 03:30N 37°23' E 016°13'1418.0
2017-Oct-13 02:42N 37°11' E 016°02'8517.3
2017-Oct-12 21:48N 36°08' E 014°52'517.0
2017-Oct-12 21:30N 36°05' E 014°47'917.0
2017-Oct-12 21:00N 35°59' E 014°39'714.6
2017-Oct-12 20:30N 35°55' E 014°32'2 0.1
2017-Oct-12 03:48N 35°53' E 014°31'1 2.8
2017-Oct-12 03:30N 35°54' E 014°31'4 8.7
2017-Oct-12 03:00N 35°56' E 014°36'713.4
2017-Oct-12 02:30N 36°01' E 014°42'713.9
2017-Oct-12 02:01N 36°06' E 014°48'9213.8
2017-Oct-11 19:20N 37°30' E 015°34'514.4
2017-Oct-11 19:00N 37°35' E 015°34'714.3
2017-Oct-11 18:30N 37°42' E 015°32'714.5
2017-Oct-11 18:00N 37°49' E 015°30'714.6
2017-Oct-11 17:30N 37°56' E 015°29'714.1
2017-Oct-11 17:00N 38°02' E 015°33'81 4.7
2017-Oct-10 23:51N 39°20' E 015°01'614.9
2017-Oct-10 23:28N 39°24' E 014°57'2215.2
2017-Oct-10 22:02N 39°43' E 014°42'115.4
2017-Oct-10 21:59N 39°43' E 014°41'815.3
2017-Oct-10 21:28N 39°50' E 014°36'4715.4
2017-Oct-10 18:23N 40°31' E 014°04'513.4
2017-Oct-10 18:00N 40°36' E 014°04'815.1
2017-Oct-10 17:30N 40°42' E 014°10'714.9
2017-Oct-10 17:00N 40°48' E 014°16'3 5.1
2017-Oct-10 16:30N 40°50' E 014°16'0 0.1
2017-Oct-10 15:26N 40°50' E 014°16'0 0.0
2017-Oct-10 14:56N 40°50' E 014°16'0 0.0
2017-Oct-10 13:53N 40°50' E 014°16'0 0.0
2017-Oct-10 13:23N 40°50' E 014°16'0 0.0
2017-Oct-10 12:53N 40°50' E 014°16'0 0.0
2017-Oct-10 11:11N 40°50' E 014°16'0 0.0
2017-Oct-10 10:59N 40°50' E 014°16'0 0.0
2017-Oct-10 08:29N 40°50' E 014°16'  

Dump ship's entire track history